sensor_id;sensor_type;location;lat;lon;timestamp;P1;durP1;ratioP1;P2;durP2;ratioP2
67880;SDS011;54680;52.486;-1.890;2024-02-28T00:00:52;36.75;;;11.23;;
67880;SDS011;54680;52.486;-1.890;2024-02-28T00:03:18;41.30;;;11.10;;
67880;SDS011;54680;52.486;-1.890;2024-02-28T00:05:43;52.17;;;11.57;;
67880;SDS011;54680;52.486;-1.890;2024-02-28T00:08:10;40.40;;;10.40;;
67880;SDS011;54680;52.486;-1.890;2024-02-28T00:10:36;32.65;;;10.75;;
67880;SDS011;54680;52.486;-1.890;2024-02-28T00:13:08;39.42;;;10.13;;
67880;SDS011;54680;52.486;-1.890;2024-02-28T00:15:33;43.63;;;12.13;;
67880;SDS011;54680;52.486;-1.890;2024-02-28T00:17:59;36.70;;;12.20;;
67880;SDS011;54680;52.486;-1.890;2024-02-28T00:20:24;52.80;;;12.95;;
67880;SDS011;54680;52.486;-1.890;2024-02-28T00:22:52;44.20;;;12.55;;
67880;SDS011;54680;52.486;-1.890;2024-02-28T00:25:18;58.33;;;13.20;;
67880;SDS011;54680;52.486;-1.890;2024-02-28T00:27:43;35.63;;;12.00;;
67880;SDS011;54680;52.486;-1.890;2024-02-28T00:30:09;47.22;;;12.40;;
67880;SDS011;54680;52.486;-1.890;2024-02-28T00:32:35;37.38;;;10.32;;
67880;SDS011;54680;52.486;-1.890;2024-02-28T00:35:00;35.22;;;10.98;;
67880;SDS011;54680;52.486;-1.890;2024-02-28T00:37:26;42.20;;;11.68;;
67880;SDS011;54680;52.486;-1.890;2024-02-28T00:39:51;39.95;;;11.45;;
67880;SDS011;54680;52.486;-1.890;2024-02-28T00:42:17;37.55;;;11.05;;
67880;SDS011;54680;52.486;-1.890;2024-02-28T00:44:42;27.73;;;10.07;;
67880;SDS011;54680;52.486;-1.890;2024-02-28T00:47:08;29.38;;;9.45;;
67880;SDS011;54680;52.486;-1.890;2024-02-28T00:49:37;40.13;;;9.50;;
67880;SDS011;54680;52.486;-1.890;2024-02-28T00:52:02;26.63;;;9.88;;
67880;SDS011;54680;52.486;-1.890;2024-02-28T00:54:28;41.42;;;9.98;;
67880;SDS011;54680;52.486;-1.890;2024-02-28T00:56:53;32.00;;;10.13;;
67880;SDS011;54680;52.486;-1.890;2024-02-28T00:59:20;30.55;;;9.27;;
67880;SDS011;54680;52.486;-1.890;2024-02-28T01:01:48;35.03;;;9.30;;
67880;SDS011;54680;52.486;-1.890;2024-02-28T01:04:15;33.55;;;10.07;;
67880;SDS011;54680;52.486;-1.890;2024-02-28T01:06:41;47.65;;;11.63;;
67880;SDS011;54680;52.486;-1.890;2024-02-28T01:09:06;37.85;;;11.50;;
67880;SDS011;54680;52.486;-1.890;2024-02-28T01:11:32;42.72;;;10.93;;
67880;SDS011;54680;52.486;-1.890;2024-02-28T01:13:57;42.03;;;11.10;;
67880;SDS011;54680;52.486;-1.890;2024-02-28T01:16:24;27.80;;;11.02;;
67880;SDS011;54680;52.486;-1.890;2024-02-28T01:18:50;43.55;;;12.95;;
67880;SDS011;54680;52.486;-1.890;2024-02-28T01:21:16;52.78;;;13.73;;
67880;SDS011;54680;52.486;-1.890;2024-02-28T01:23:42;45.42;;;12.98;;
67880;SDS011;54680;52.486;-1.890;2024-02-28T01:26:07;49.05;;;13.45;;
67880;SDS011;54680;52.486;-1.890;2024-02-28T01:28:32;39.83;;;13.30;;
67880;SDS011;54680;52.486;-1.890;2024-02-28T01:30:58;40.85;;;13.30;;
67880;SDS011;54680;52.486;-1.890;2024-02-28T01:33:25;40.72;;;12.30;;
67880;SDS011;54680;52.486;-1.890;2024-02-28T01:35:51;37.95;;;11.77;;
67880;SDS011;54680;52.486;-1.890;2024-02-28T01:38:16;45.88;;;11.80;;
67880;SDS011;54680;52.486;-1.890;2024-02-28T01:40:45;42.40;;;12.18;;
67880;SDS011;54680;52.486;-1.890;2024-02-28T01:43:11;41.80;;;12.68;;
67880;SDS011;54680;52.486;-1.890;2024-02-28T01:45:38;48.40;;;13.13;;
67880;SDS011;54680;52.486;-1.890;2024-02-28T01:48:05;56.47;;;13.00;;
67880;SDS011;54680;52.486;-1.890;2024-02-28T01:50:32;37.05;;;12.00;;
67880;SDS011;54680;52.486;-1.890;2024-02-28T01:52:58;42.03;;;11.85;;
67880;SDS011;54680;52.486;-1.890;2024-02-28T01:55:26;33.42;;;11.88;;
67880;SDS011;54680;52.486;-1.890;2024-02-28T01:57:52;37.78;;;12.23;;
67880;SDS011;54680;52.486;-1.890;2024-02-28T02:00:19;40.55;;;11.88;;
67880;SDS011;54680;52.486;-1.890;2024-02-28T02:02:46;39.15;;;11.50;;
67880;SDS011;54680;52.486;-1.890;2024-02-28T02:05:12;34.72;;;11.82;;
67880;SDS011;54680;52.486;-1.890;2024-02-28T02:07:41;40.00;;;12.35;;
67880;SDS011;54680;52.486;-1.890;2024-02-28T02:10:07;35.13;;;12.70;;
67880;SDS011;54680;52.486;-1.890;2024-02-28T02:12:35;47.33;;;14.52;;
67880;SDS011;54680;52.486;-1.890;2024-02-28T02:15:01;42.97;;;15.00;;
67880;SDS011;54680;52.486;-1.890;2024-02-28T02:17:27;43.95;;;13.63;;
67880;SDS011;54680;52.486;-1.890;2024-02-28T02:19:52;49.45;;;14.35;;
67880;SDS011;54680;52.486;-1.890;2024-02-28T02:22:18;37.42;;;13.65;;
67880;SDS011;54680;52.486;-1.890;2024-02-28T02:24:45;47.60;;;14.15;;
67880;SDS011;54680;52.486;-1.890;2024-02-28T02:27:17;46.65;;;14.73;;
67880;SDS011;54680;52.486;-1.890;2024-02-28T02:29:42;43.20;;;14.20;;
67880;SDS011;54680;52.486;-1.890;2024-02-28T02:32:08;50.65;;;15.13;;
67880;SDS011;54680;52.486;-1.890;2024-02-28T02:34:34;49.50;;;15.57;;
67880;SDS011;54680;52.486;-1.890;2024-02-28T02:36:59;42.70;;;14.65;;
67880;SDS011;54680;52.486;-1.890;2024-02-28T02:39:25;52.00;;;16.67;;
67880;SDS011;54680;52.486;-1.890;2024-02-28T02:41:50;56.22;;;16.50;;
67880;SDS011;54680;52.486;-1.890;2024-02-28T02:44:16;38.75;;;15.20;;
67880;SDS011;54680;52.486;-1.890;2024-02-28T02:46:42;46.72;;;16.35;;
67880;SDS011;54680;52.486;-1.890;2024-02-28T02:49:08;51.45;;;16.83;;
67880;SDS011;54680;52.486;-1.890;2024-02-28T02:51:33;43.47;;;14.82;;
67880;SDS011;54680;52.486;-1.890;2024-02-28T02:53:59;44.15;;;13.68;;
67880;SDS011;54680;52.486;-1.890;2024-02-28T02:56:24;55.67;;;16.25;;
67880;SDS011;54680;52.486;-1.890;2024-02-28T02:58:50;39.30;;;13.73;;
67880;SDS011;54680;52.486;-1.890;2024-02-28T03:01:15;39.90;;;12.32;;
67880;SDS011;54680;52.486;-1.890;2024-02-28T03:03:41;46.15;;;13.80;;
67880;SDS011;54680;52.486;-1.890;2024-02-28T03:06:06;54.63;;;15.02;;
67880;SDS011;54680;52.486;-1.890;2024-02-28T03:08:32;42.25;;;15.15;;
67880;SDS011;54680;52.486;-1.890;2024-02-28T03:10:58;44.03;;;14.38;;
67880;SDS011;54680;52.486;-1.890;2024-02-28T03:13:23;47.83;;;14.18;;
67880;SDS011;54680;52.486;-1.890;2024-02-28T03:15:50;32.60;;;12.35;;
67880;SDS011;54680;52.486;-1.890;2024-02-28T03:18:15;41.80;;;11.95;;
67880;SDS011;54680;52.486;-1.890;2024-02-28T03:20:41;35.75;;;12.23;;
67880;SDS011;54680;52.486;-1.890;2024-02-28T03:23:07;40.22;;;12.32;;
67880;SDS011;54680;52.486;-1.890;2024-02-28T03:25:32;39.53;;;12.68;;
67880;SDS011;54680;52.486;-1.890;2024-02-28T03:27:58;28.92;;;11.90;;
67880;SDS011;54680;52.486;-1.890;2024-02-28T03:30:25;35.38;;;10.65;;
67880;SDS011;54680;52.486;-1.890;2024-02-28T03:32:50;32.58;;;10.52;;
67880;SDS011;54680;52.486;-1.890;2024-02-28T03:35:16;34.88;;;10.98;;
67880;SDS011;54680;52.486;-1.890;2024-02-28T03:37:42;39.35;;;11.40;;
67880;SDS011;54680;52.486;-1.890;2024-02-28T03:40:10;29.98;;;10.65;;
67880;SDS011;54680;52.486;-1.890;2024-02-28T03:42:36;25.50;;;10.23;;
67880;SDS011;54680;52.486;-1.890;2024-02-28T03:45:01;38.22;;;12.88;;
67880;SDS011;54680;52.486;-1.890;2024-02-28T03:47:27;27.35;;;10.80;;
67880;SDS011;54680;52.486;-1.890;2024-02-28T03:49:53;43.35;;;12.95;;
67880;SDS011;54680;52.486;-1.890;2024-02-28T03:52:22;41.03;;;11.70;;
67880;SDS011;54680;52.486;-1.890;2024-02-28T03:54:48;30.98;;;11.50;;
67880;SDS011;54680;52.486;-1.890;2024-02-28T03:57:13;36.03;;;12.18;;
67880;SDS011;54680;52.486;-1.890;2024-02-28T03:59:40;33.00;;;11.88;;
67880;SDS011;54680;52.486;-1.890;2024-02-28T04:02:06;41.58;;;12.85;;
67880;SDS011;54680;52.486;-1.890;2024-02-28T04:04:31;39.17;;;12.60;;
67880;SDS011;54680;52.486;-1.890;2024-02-28T04:06:57;33.33;;;11.18;;
67880;SDS011;54680;52.486;-1.890;2024-02-28T04:09:22;32.70;;;13.98;;
67880;SDS011;54680;52.486;-1.890;2024-02-28T04:11:48;31.20;;;12.60;;
67880;SDS011;54680;52.486;-1.890;2024-02-28T04:14:13;48.17;;;14.30;;
67880;SDS011;54680;52.486;-1.890;2024-02-28T04:16:42;46.30;;;15.18;;
67880;SDS011;54680;52.486;-1.890;2024-02-28T04:19:12;49.95;;;15.98;;
67880;SDS011;54680;52.486;-1.890;2024-02-28T04:21:37;43.10;;;15.63;;
67880;SDS011;54680;52.486;-1.890;2024-02-28T04:24:06;37.95;;;15.57;;
67880;SDS011;54680;52.486;-1.890;2024-02-28T04:26:32;51.47;;;17.08;;
67880;SDS011;54680;52.486;-1.890;2024-02-28T04:28:58;37.67;;;14.20;;
67880;SDS011;54680;52.486;-1.890;2024-02-28T04:31:26;44.17;;;15.63;;
67880;SDS011;54680;52.486;-1.890;2024-02-28T04:33:52;41.97;;;13.23;;
67880;SDS011;54680;52.486;-1.890;2024-02-28T04:36:25;29.58;;;12.25;;
67880;SDS011;54680;52.486;-1.890;2024-02-28T04:38:51;38.88;;;12.30;;
67880;SDS011;54680;52.486;-1.890;2024-02-28T04:41:16;27.77;;;11.82;;
67880;SDS011;54680;52.486;-1.890;2024-02-28T04:43:42;42.03;;;13.18;;
67880;SDS011;54680;52.486;-1.890;2024-02-28T04:46:07;34.88;;;12.77;;
67880;SDS011;54680;52.486;-1.890;2024-02-28T04:48:33;33.78;;;12.07;;
67880;SDS011;54680;52.486;-1.890;2024-02-28T04:51:00;30.70;;;12.00;;
67880;SDS011;54680;52.486;-1.890;2024-02-28T04:53:26;30.90;;;12.75;;
67880;SDS011;54680;52.486;-1.890;2024-02-28T04:55:51;38.78;;;13.38;;
67880;SDS011;54680;52.486;-1.890;2024-02-28T04:58:17;29.65;;;11.55;;
67880;SDS011;54680;52.486;-1.890;2024-02-28T05:00:42;34.78;;;12.07;;
67880;SDS011;54680;52.486;-1.890;2024-02-28T05:03:08;30.23;;;12.07;;
67880;SDS011;54680;52.486;-1.890;2024-02-28T05:05:33;38.95;;;13.20;;
67880;SDS011;54680;52.486;-1.890;2024-02-28T05:07:59;38.78;;;13.52;;
67880;SDS011;54680;52.486;-1.890;2024-02-28T05:10:24;44.33;;;13.70;;
67880;SDS011;54680;52.486;-1.890;2024-02-28T05:12:50;35.22;;;10.52;;
67880;SDS011;54680;52.486;-1.890;2024-02-28T05:15:16;40.58;;;11.68;;
67880;SDS011;54680;52.486;-1.890;2024-02-28T05:17:42;40.13;;;10.52;;
67880;SDS011;54680;52.486;-1.890;2024-02-28T05:20:08;29.08;;;8.85;;
67880;SDS011;54680;52.486;-1.890;2024-02-28T05:22:34;29.42;;;8.35;;
67880;SDS011;54680;52.486;-1.890;2024-02-28T05:24:59;29.48;;;8.50;;
67880;SDS011;54680;52.486;-1.890;2024-02-28T05:27:25;28.27;;;7.95;;
67880;SDS011;54680;52.486;-1.890;2024-02-28T05:29:50;26.63;;;8.25;;
67880;SDS011;54680;52.486;-1.890;2024-02-28T05:32:16;24.30;;;7.63;;
67880;SDS011;54680;52.486;-1.890;2024-02-28T05:34:42;25.05;;;8.27;;
67880;SDS011;54680;52.486;-1.890;2024-02-28T05:37:07;22.35;;;7.63;;
67880;SDS011;54680;52.486;-1.890;2024-02-28T05:39:33;22.80;;;9.10;;
67880;SDS011;54680;52.486;-1.890;2024-02-28T05:41:59;22.77;;;8.57;;
67880;SDS011;54680;52.486;-1.890;2024-02-28T05:44:25;27.83;;;10.85;;
67880;SDS011;54680;52.486;-1.890;2024-02-28T05:46:50;30.45;;;12.55;;
67880;SDS011;54680;52.486;-1.890;2024-02-28T05:49:16;29.38;;;12.30;;
67880;SDS011;54680;52.486;-1.890;2024-02-28T05:51:41;35.47;;;13.80;;
67880;SDS011;54680;52.486;-1.890;2024-02-28T05:54:06;33.50;;;14.57;;
67880;SDS011;54680;52.486;-1.890;2024-02-28T05:56:32;35.60;;;15.23;;
67880;SDS011;54680;52.486;-1.890;2024-02-28T05:59:07;38.03;;;14.82;;
67880;SDS011;54680;52.486;-1.890;2024-02-28T06:01:33;37.72;;;15.45;;
67880;SDS011;54680;52.486;-1.890;2024-02-28T06:03:58;36.50;;;17.13;;
67880;SDS011;54680;52.486;-1.890;2024-02-28T06:06:24;36.28;;;15.70;;
67880;SDS011;54680;52.486;-1.890;2024-02-28T06:08:50;43.10;;;16.35;;
67880;SDS011;54680;52.486;-1.890;2024-02-28T06:11:16;38.40;;;17.48;;
67880;SDS011;54680;52.486;-1.890;2024-02-28T06:13:41;48.88;;;18.95;;
67880;SDS011;54680;52.486;-1.890;2024-02-28T06:16:07;49.67;;;16.95;;
67880;SDS011;54680;52.486;-1.890;2024-02-28T06:18:32;48.95;;;17.63;;
67880;SDS011;54680;52.486;-1.890;2024-02-28T06:20:58;43.60;;;16.95;;
67880;SDS011;54680;52.486;-1.890;2024-02-28T06:23:25;54.30;;;18.08;;
67880;SDS011;54680;52.486;-1.890;2024-02-28T06:25:51;50.22;;;17.25;;
67880;SDS011;54680;52.486;-1.890;2024-02-28T06:28:17;51.17;;;17.52;;
67880;SDS011;54680;52.486;-1.890;2024-02-28T06:30:43;61.47;;;18.60;;
67880;SDS011;54680;52.486;-1.890;2024-02-28T06:33:15;52.95;;;18.63;;
67880;SDS011;54680;52.486;-1.890;2024-02-28T06:35:40;45.30;;;16.95;;
67880;SDS011;54680;52.486;-1.890;2024-02-28T06:38:06;48.80;;;17.55;;
67880;SDS011;54680;52.486;-1.890;2024-02-28T06:40:32;48.63;;;18.63;;
67880;SDS011;54680;52.486;-1.890;2024-02-28T06:42:59;53.28;;;18.67;;
67880;SDS011;54680;52.486;-1.890;2024-02-28T06:45:25;56.63;;;20.13;;
67880;SDS011;54680;52.486;-1.890;2024-02-28T06:47:51;48.72;;;17.83;;
67880;SDS011;54680;52.486;-1.890;2024-02-28T06:50:16;52.13;;;17.30;;
67880;SDS011;54680;52.486;-1.890;2024-02-28T06:52:43;48.58;;;17.27;;
67880;SDS011;54680;52.486;-1.890;2024-02-28T06:55:08;59.50;;;21.88;;
67880;SDS011;54680;52.486;-1.890;2024-02-28T06:57:39;49.03;;;18.15;;
67880;SDS011;54680;52.486;-1.890;2024-02-28T07:00:06;50.17;;;17.33;;
67880;SDS011;54680;52.486;-1.890;2024-02-28T07:02:44;42.53;;;15.70;;
67880;SDS011;54680;52.486;-1.890;2024-02-28T07:05:09;46.75;;;16.45;;
67880;SDS011;54680;52.486;-1.890;2024-02-28T07:07:35;47.95;;;17.15;;
67880;SDS011;54680;52.486;-1.890;2024-02-28T07:10:02;29.80;;;12.93;;
67880;SDS011;54680;52.486;-1.890;2024-02-28T07:12:29;29.13;;;11.82;;
67880;SDS011;54680;52.486;-1.890;2024-02-28T07:14:54;318.55;;;21.25;;
67880;SDS011;54680;52.486;-1.890;2024-02-28T07:17:20;28.02;;;11.20;;
67880;SDS011;54680;52.486;-1.890;2024-02-28T07:19:46;39.88;;;15.88;;
67880;SDS011;54680;52.486;-1.890;2024-02-28T07:22:11;44.58;;;14.90;;
67880;SDS011;54680;52.486;-1.890;2024-02-28T07:24:37;41.10;;;14.68;;
67880;SDS011;54680;52.486;-1.890;2024-02-28T07:27:02;103.57;;;15.05;;
67880;SDS011;54680;52.486;-1.890;2024-02-28T07:29:28;46.47;;;12.05;;
67880;SDS011;54680;52.486;-1.890;2024-02-28T07:31:54;227.65;;;16.60;;
67880;SDS011;54680;52.486;-1.890;2024-02-28T07:34:19;37.50;;;13.13;;
67880;SDS011;54680;52.486;-1.890;2024-02-28T07:36:45;38.00;;;13.23;;
67880;SDS011;54680;52.486;-1.890;2024-02-28T07:39:10;46.10;;;14.90;;
67880;SDS011;54680;52.486;-1.890;2024-02-28T07:41:39;39.35;;;13.00;;
67880;SDS011;54680;52.486;-1.890;2024-02-28T07:44:06;29.35;;;10.07;;
67880;SDS011;54680;52.486;-1.890;2024-02-28T07:46:32;43.85;;;13.85;;
67880;SDS011;54680;52.486;-1.890;2024-02-28T07:48:58;46.33;;;13.90;;
67880;SDS011;54680;52.486;-1.890;2024-02-28T07:51:23;53.17;;;14.93;;
67880;SDS011;54680;52.486;-1.890;2024-02-28T07:53:49;46.15;;;13.07;;
67880;SDS011;54680;52.486;-1.890;2024-02-28T07:56:15;71.13;;;16.38;;
67880;SDS011;54680;52.486;-1.890;2024-02-28T07:58:42;74.70;;;18.63;;
67880;SDS011;54680;52.486;-1.890;2024-02-28T08:01:08;92.45;;;21.92;;
67880;SDS011;54680;52.486;-1.890;2024-02-28T08:03:33;103.53;;;24.38;;
67880;SDS011;54680;52.486;-1.890;2024-02-28T08:06:00;79.63;;;21.38;;
67880;SDS011;54680;52.486;-1.890;2024-02-28T08:08:25;118.25;;;25.75;;
67880;SDS011;54680;52.486;-1.890;2024-02-28T08:10:51;101.28;;;20.73;;
67880;SDS011;54680;52.486;-1.890;2024-02-28T08:13:18;124.13;;;22.73;;
67880;SDS011;54680;52.486;-1.890;2024-02-28T08:15:44;107.47;;;21.92;;
67880;SDS011;54680;52.486;-1.890;2024-02-28T08:18:09;87.82;;;19.95;;
67880;SDS011;54680;52.486;-1.890;2024-02-28T08:20:36;115.22;;;21.38;;
67880;SDS011;54680;52.486;-1.890;2024-02-28T08:23:03;116.80;;;21.00;;
67880;SDS011;54680;52.486;-1.890;2024-02-28T08:25:29;151.38;;;23.65;;
67880;SDS011;54680;52.486;-1.890;2024-02-28T08:27:54;172.13;;;25.17;;
67880;SDS011;54680;52.486;-1.890;2024-02-28T08:30:22;180.68;;;25.45;;
67880;SDS011;54680;52.486;-1.890;2024-02-28T08:32:48;164.40;;;25.38;;
67880;SDS011;54680;52.486;-1.890;2024-02-28T08:35:14;148.73;;;22.90;;
67880;SDS011;54680;52.486;-1.890;2024-02-28T08:37:39;142.35;;;20.02;;
67880;SDS011;54680;52.486;-1.890;2024-02-28T08:40:06;177.88;;;24.50;;
67880;SDS011;54680;52.486;-1.890;2024-02-28T08:42:32;125.30;;;20.40;;
67880;SDS011;54680;52.486;-1.890;2024-02-28T08:44:59;240.32;;;22.00;;
67880;SDS011;54680;52.486;-1.890;2024-02-28T08:47:25;146.60;;;20.83;;
67880;SDS011;54680;52.486;-1.890;2024-02-28T08:49:51;147.73;;;19.38;;
67880;SDS011;54680;52.486;-1.890;2024-02-28T08:52:18;275.40;;;22.05;;
67880;SDS011;54680;52.486;-1.890;2024-02-28T08:54:44;117.95;;;16.50;;
67880;SDS011;54680;52.486;-1.890;2024-02-28T08:57:10;151.95;;;19.98;;
67880;SDS011;54680;52.486;-1.890;2024-02-28T08:59:35;102.07;;;16.50;;
67880;SDS011;54680;52.486;-1.890;2024-02-28T09:02:01;150.45;;;20.00;;
67880;SDS011;54680;52.486;-1.890;2024-02-28T09:04:26;147.70;;;19.67;;
67880;SDS011;54680;52.486;-1.890;2024-02-28T09:06:52;121.93;;;18.50;;
67880;SDS011;54680;52.486;-1.890;2024-02-28T09:09:20;130.45;;;20.90;;
67880;SDS011;54680;52.486;-1.890;2024-02-28T09:11:46;107.95;;;17.95;;
67880;SDS011;54680;52.486;-1.890;2024-02-28T09:14:11;103.78;;;18.75;;
67880;SDS011;54680;52.486;-1.890;2024-02-28T09:16:37;96.22;;;18.88;;
67880;SDS011;54680;52.486;-1.890;2024-02-28T09:19:03;92.95;;;17.45;;
67880;SDS011;54680;52.486;-1.890;2024-02-28T09:21:29;107.55;;;21.50;;
67880;SDS011;54680;52.486;-1.890;2024-02-28T09:23:55;92.93;;;19.90;;
67880;SDS011;54680;52.486;-1.890;2024-02-28T09:26:21;81.57;;;17.88;;
67880;SDS011;54680;52.486;-1.890;2024-02-28T09:28:46;66.15;;;15.13;;
67880;SDS011;54680;52.486;-1.890;2024-02-28T09:31:12;56.55;;;13.65;;
67880;SDS011;54680;52.486;-1.890;2024-02-28T09:33:37;41.20;;;11.25;;
67880;SDS011;54680;52.486;-1.890;2024-02-28T09:36:03;37.70;;;10.85;;
67880;SDS011;54680;52.486;-1.890;2024-02-28T09:38:29;39.60;;;11.85;;
67880;SDS011;54680;52.486;-1.890;2024-02-28T09:40:57;35.88;;;10.88;;
67880;SDS011;54680;52.486;-1.890;2024-02-28T09:43:31;36.10;;;10.98;;
67880;SDS011;54680;52.486;-1.890;2024-02-28T09:46:08;35.22;;;12.20;;
67880;SDS011;54680;52.486;-1.890;2024-02-28T09:48:38;34.90;;;10.40;;
67880;SDS011;54680;52.486;-1.890;2024-02-28T09:51:05;35.10;;;11.15;;
67880;SDS011;54680;52.486;-1.890;2024-02-28T09:53:31;33.22;;;11.27;;
67880;SDS011;54680;52.486;-1.890;2024-02-28T09:55:56;27.40;;;10.25;;
67880;SDS011;54680;52.486;-1.890;2024-02-28T09:58:22;32.92;;;10.18;;
67880;SDS011;54680;52.486;-1.890;2024-02-28T10:00:49;28.17;;;10.05;;
67880;SDS011;54680;52.486;-1.890;2024-02-28T10:03:18;31.90;;;9.07;;
67880;SDS011;54680;52.486;-1.890;2024-02-28T10:05:51;26.23;;;9.05;;
67880;SDS011;54680;52.486;-1.890;2024-02-28T10:08:16;25.38;;;6.95;;
67880;SDS011;54680;52.486;-1.890;2024-02-28T10:10:46;33.97;;;9.07;;
67880;SDS011;54680;52.486;-1.890;2024-02-28T10:13:19;33.38;;;11.45;;
67880;SDS011;54680;52.486;-1.890;2024-02-28T10:15:45;26.08;;;8.20;;
67880;SDS011;54680;52.486;-1.890;2024-02-28T10:18:16;35.33;;;11.20;;
67880;SDS011;54680;52.486;-1.890;2024-02-28T10:20:42;35.05;;;9.60;;
67880;SDS011;54680;52.486;-1.890;2024-02-28T10:23:08;42.08;;;11.85;;
67880;SDS011;54680;52.486;-1.890;2024-02-28T10:28:15;43.88;;;11.85;;
67880;SDS011;54680;52.486;-1.890;2024-02-28T10:30:41;49.17;;;13.93;;
67880;SDS011;54680;52.486;-1.890;2024-02-28T10:33:11;34.80;;;11.10;;
67880;SDS011;54680;52.486;-1.890;2024-02-28T10:35:39;30.38;;;10.23;;
67880;SDS011;54680;52.486;-1.890;2024-02-28T10:38:06;31.05;;;8.68;;
67880;SDS011;54680;52.486;-1.890;2024-02-28T10:40:32;33.83;;;9.55;;
67880;SDS011;54680;52.486;-1.890;2024-02-28T10:42:57;28.80;;;9.60;;
67880;SDS011;54680;52.486;-1.890;2024-02-28T10:45:29;31.05;;;8.50;;
67880;SDS011;54680;52.486;-1.890;2024-02-28T10:47:56;31.92;;;8.77;;
67880;SDS011;54680;52.486;-1.890;2024-02-28T10:50:22;36.53;;;10.43;;
67880;SDS011;54680;52.486;-1.890;2024-02-28T10:52:48;27.30;;;9.43;;
67880;SDS011;54680;52.486;-1.890;2024-02-28T10:55:21;43.25;;;11.95;;
67880;SDS011;54680;52.486;-1.890;2024-02-28T10:57:53;26.70;;;8.15;;
67880;SDS011;54680;52.486;-1.890;2024-02-28T11:00:30;35.93;;;8.33;;
67880;SDS011;54680;52.486;-1.890;2024-02-28T11:02:57;28.95;;;8.32;;
67880;SDS011;54680;52.486;-1.890;2024-02-28T11:05:34;26.00;;;8.63;;
67880;SDS011;54680;52.486;-1.890;2024-02-28T11:08:05;20.35;;;6.47;;
67880;SDS011;54680;52.486;-1.890;2024-02-28T11:10:47;31.98;;;9.10;;
67880;SDS011;54680;52.486;-1.890;2024-02-28T11:13:22;27.83;;;8.65;;
67880;SDS011;54680;52.486;-1.890;2024-02-28T11:15:52;33.28;;;9.02;;
67880;SDS011;54680;52.486;-1.890;2024-02-28T11:18:21;37.15;;;11.02;;
67880;SDS011;54680;52.486;-1.890;2024-02-28T11:20:47;29.60;;;7.93;;
67880;SDS011;54680;52.486;-1.890;2024-02-28T11:23:17;10.07;;;5.07;;
67880;SDS011;54680;52.486;-1.890;2024-02-28T11:25:43;28.05;;;7.78;;
67880;SDS011;54680;52.486;-1.890;2024-02-28T11:28:09;35.13;;;11.25;;
67880;SDS011;54680;52.486;-1.890;2024-02-28T11:30:35;29.98;;;8.18;;
67880;SDS011;54680;52.486;-1.890;2024-02-28T11:33:01;33.60;;;9.68;;
67880;SDS011;54680;52.486;-1.890;2024-02-28T11:35:27;27.17;;;8.30;;
67880;SDS011;54680;52.486;-1.890;2024-02-28T11:37:54;26.25;;;7.97;;
67880;SDS011;54680;52.486;-1.890;2024-02-28T11:40:23;36.10;;;9.85;;
67880;SDS011;54680;52.486;-1.890;2024-02-28T11:43:01;27.08;;;8.73;;
67880;SDS011;54680;52.486;-1.890;2024-02-28T11:45:30;28.73;;;8.20;;
67880;SDS011;54680;52.486;-1.890;2024-02-28T11:48:16;31.50;;;9.70;;
67880;SDS011;54680;52.486;-1.890;2024-02-28T11:50:45;33.17;;;8.65;;
67880;SDS011;54680;52.486;-1.890;2024-02-28T11:53:11;30.13;;;9.60;;
67880;SDS011;54680;52.486;-1.890;2024-02-28T11:55:37;28.08;;;8.77;;
67880;SDS011;54680;52.486;-1.890;2024-02-28T11:58:25;28.83;;;8.35;;
67880;SDS011;54680;52.486;-1.890;2024-02-28T12:00:50;23.40;;;7.35;;
67880;SDS011;54680;52.486;-1.890;2024-02-28T12:03:23;22.35;;;7.60;;
67880;SDS011;54680;52.486;-1.890;2024-02-28T12:05:49;30.02;;;6.70;;
67880;SDS011;54680;52.486;-1.890;2024-02-28T12:08:19;26.77;;;7.80;;
67880;SDS011;54680;52.486;-1.890;2024-02-28T12:10:45;24.70;;;5.63;;
67880;SDS011;54680;52.486;-1.890;2024-02-28T12:13:22;14.63;;;4.63;;
67880;SDS011;54680;52.486;-1.890;2024-02-28T12:15:52;20.20;;;5.85;;
67880;SDS011;54680;52.486;-1.890;2024-02-28T12:18:25;19.98;;;4.82;;
67880;SDS011;54680;52.486;-1.890;2024-02-28T12:20:52;26.17;;;7.03;;
67880;SDS011;54680;52.486;-1.890;2024-02-28T12:23:18;25.35;;;6.13;;
67880;SDS011;54680;52.486;-1.890;2024-02-28T12:25:44;27.90;;;6.60;;
67880;SDS011;54680;52.486;-1.890;2024-02-28T12:28:16;26.77;;;6.00;;
67880;SDS011;54680;52.486;-1.890;2024-02-28T12:35:53;19.70;;;5.90;;
67880;SDS011;54680;52.486;-1.890;2024-02-28T12:38:21;30.05;;;6.40;;
67880;SDS011;54680;52.486;-1.890;2024-02-28T12:40:48;24.20;;;6.68;;
67880;SDS011;54680;52.486;-1.890;2024-02-28T12:43:15;26.67;;;6.47;;
67880;SDS011;54680;52.486;-1.890;2024-02-28T12:45:42;21.88;;;6.70;;
67880;SDS011;54680;52.486;-1.890;2024-02-28T12:48:08;27.73;;;6.15;;
67880;SDS011;54680;52.486;-1.890;2024-02-28T12:50:34;21.48;;;5.20;;
67880;SDS011;54680;52.486;-1.890;2024-02-28T20:51:56;10.93;;;3.30;;
